Time;durP1;ratioP1;P1;durP2;ratioP2;P2;SDS_P1;SDS_P2;PMS_P1;PMS_P2;Temp;Humidity;BMP_temperature;BMP_pressure;BME280_temperature;BME280_humidity;BME280_pressure;Samples;Min_cycle;Max_cycle;Signal;HPM_P1;HPM_P2
2023/01/30 00:01:05;;;;;;;1.73;1.63;;;20.90;53.40;;;;;;4935897;29;21016;-66
2023/01/30 00:03:35;;;;;;;1.90;1.80;;;20.80;52.90;;;;;;4935883;29;20514;-66
2023/01/30 00:06:03;;;;;;;1.63;1.53;;;20.80;53.20;;;;;;4933335;29;20510;-66
2023/01/30 00:08:31;;;;;;;2.20;2.00;;;20.70;53.50;;;;;;4934512;29;20520;-66
2023/01/30 00:11:04;;;;;;;1.93;1.83;;;20.70;52.90;;;;;;4930515;29;20891;-66
2023/01/30 00:13:32;;;;;;;1.60;1.50;;;20.60;52.90;;;;;;4931945;29;20460;-66
2023/01/30 00:16:01;;;;;;;2.10;2.00;;;20.50;53.10;;;;;;4933208;29;20598;-67
2023/01/30 00:18:29;;;;;;;1.70;1.60;;;20.50;53.50;;;;;;4928898;29;20472;-66
2023/01/30 00:21:00;;;;;;;1.40;1.30;;;20.50;54.40;;;;;;4931480;29;20545;-66
2023/01/30 00:23:29;;;;;;;1.40;1.33;;;20.40;54.00;;;;;;4927352;29;20465;-66
2023/01/30 00:25:57;;;;;;;1.50;1.40;;;20.50;54.50;;;;;;4927331;29;20502;-65
2023/01/30 00:28:26;;;;;;;1.60;1.50;;;20.50;54.60;;;;;;4923409;29;20465;-66
2023/01/30 00:30:56;;;;;;;1.20;1.20;;;20.50;54.60;;;;;;4925513;29;20464;-66
2023/01/30 00:33:26;;;;;;;1.30;1.20;;;20.60;54.50;;;;;;4926101;29;20493;-66
2023/01/30 00:35:56;;;;;;;2.83;1.20;;;20.60;54.50;;;;;;4926954;29;20511;-66
2023/01/30 00:38:25;;;;;;;1.90;1.80;;;20.70;54.40;;;;;;4931896;29;20462;-66
2023/01/30 00:40:54;;;;;;;1.33;1.07;;;20.70;54.20;;;;;;4935817;29;20585;-66
2023/01/30 00:49:00;;;;;;;1.47;1.37;;;20.90;54.00;;;;;;4930241;29;20498;-66
2023/01/30 00:51:28;;;;;;;1.50;1.40;;;20.90;54.00;;;;;;4934709;29;20467;-66
2023/01/30 00:53:58;;;;;;;1.50;1.20;;;20.90;54.00;;;;;;4933525;29;20486;-66
2023/01/30 00:56:26;;;;;;;1.73;1.63;;;20.90;54.00;;;;;;4932727;29;20527;-66
2023/01/30 00:58:54;;;;;;;1.33;1.23;;;21.00;53.90;;;;;;4932382;29;20492;-66
2023/01/30 01:01:22;;;;;;;1.77;1.67;;;21.00;53.90;;;;;;4935574;29;20520;-66
2023/01/30 01:03:50;;;;;;;2.37;2.17;;;20.90;53.50;;;;;;4927172;29;20457;-67
2023/01/30 01:06:19;;;;;;;1.43;1.30;;;20.90;53.40;;;;;;4935875;29;20477;-66
2023/01/30 01:08:47;;;;;;;1.33;1.23;;;20.90;53.70;;;;;;4929885;29;20562;-66
2023/01/30 01:11:23;;;;;;;1.90;1.80;;;20.90;54.00;;;;;;4935668;29;20541;-66
2023/01/30 01:13:53;;;;;;;2.20;2.10;;;20.90;53.90;;;;;;4947117;29;20455;-65
2023/01/30 01:16:22;;;;;;;2.23;2.13;;;20.90;53.70;;;;;;4935064;29;20979;-66
2023/01/30 01:18:51;;;;;;;1.60;1.50;;;20.80;53.50;;;;;;4928807;29;20464;-66
2023/01/30 01:21:19;;;;;;;2.23;2.10;;;20.80;53.20;;;;;;4931022;29;20521;-66
2023/01/30 01:23:50;;;;;;;2.13;2.03;;;20.70;53.20;;;;;;4930420;29;21011;-66
2023/01/30 01:26:20;;;;;;;2.00;1.90;;;20.70;52.90;;;;;;4927069;29;20484;-66
2023/01/30 01:28:49;;;;;;;2.30;2.10;;;20.60;52.60;;;;;;4927099;29;20461;-66
2023/01/30 01:31:18;;;;;;;1.90;1.80;;;20.60;52.90;;;;;;4929811;29;20472;-66
2023/01/30 01:33:46;;;;;;;2.70;2.50;;;20.50;53.00;;;;;;4935342;29;20512;-66
2023/01/30 01:36:14;;;;;;;1.43;1.33;;;20.50;53.50;;;;;;4932315;29;21652;-66
2023/01/30 01:39:03;;;;;;;2.70;2.50;;;20.50;53.70;;;;;;4933897;29;20476;-66
2023/01/30 01:41:31;;;;;;;2.27;1.40;;;20.50;53.30;;;;;;4929199;29;20599;-66
2023/01/30 01:44:05;;;;;;;2.17;2.00;;;20.50;54.40;;;;;;4929547;29;20519;-66
2023/01/30 01:46:35;;;;;;;1.57;1.47;;;20.50;54.50;;;;;;4933235;29;21036;-66
2023/01/30 01:49:08;;;;;;;1.40;1.30;;;20.50;54.50;;;;;;4933880;29;20484;-67
2023/01/30 01:51:40;;;;;;;1.27;1.17;;;20.60;54.40;;;;;;4934350;29;20483;-66
2023/01/30 01:54:11;;;;;;;1.47;1.33;;;20.60;54.40;;;;;;4929975;29;20463;-66
2023/01/30 01:56:45;;;;;;;1.37;1.27;;;20.70;54.40;;;;;;4931094;29;20475;-66
2023/01/30 01:59:20;;;;;;;1.43;1.33;;;20.70;54.30;;;;;;4931419;29;20471;-66
2023/01/30 02:01:50;;;;;;;1.17;1.10;;;20.70;54.20;;;;;;4928136;29;20937;-66
2023/01/30 02:05:00;;;;;;;1.47;1.37;;;20.70;54.20;;;;;;4932048;29;20961;-66
2023/01/30 02:07:16;;;;;;;1.77;1.67;;;20.80;54.20;;;;;;4931014;29;20492;-66
2023/01/30 02:09:44;;;;;;;1.53;1.43;;;20.80;54.20;;;;;;4920132;29;20480;-66
2023/01/30 02:12:15;;;;;;;1.43;1.33;;;20.80;54.20;;;;;;4928608;29;20496;-66
2023/01/30 02:14:44;;;;;;;1.70;1.60;;;20.80;54.00;;;;;;4930458;29;20456;-66
2023/01/30 02:17:13;;;;;;;1.50;1.40;;;20.80;54.00;;;;;;4931169;29;20457;-66
2023/01/30 02:19:49;;;;;;;1.20;1.20;;;20.90;54.00;;;;;;4924947;29;20464;-66
2023/01/30 02:22:47;;;;;;;1.20;1.20;;;20.90;54.00;;;;;;4931809;29;20461;-66
2023/01/30 02:25:46;;;;;;;1.77;1.47;;;20.90;54.00;;;;;;4926203;29;20567;-66
2023/01/30 02:28:39;;;;;;;1.60;1.50;;;20.90;54.00;;;;;;4944115;28;20470;-66
2023/01/30 02:31:24;;;;;;;1.17;1.17;;;20.90;54.00;;;;;;4926537;29;20480;-66
2023/01/30 02:34:00;;;;;;;1.30;1.10;;;20.90;54.00;;;;;;4931026;29;20573;-66
2023/01/30 02:36:41;;;;;;;1.37;1.27;;;20.90;54.00;;;;;;4940342;29;20807;-66
2023/01/30 02:39:16;;;;;;;1.40;1.30;;;20.80;54.00;;;;;;4930449;29;20516;-66
2023/01/30 02:41:52;;;;;;;1.20;1.20;;;20.80;54.00;;;;;;4928885;29;20567;-66
2023/01/30 02:44:27;;;;;;;1.80;1.70;;;20.80;54.00;;;;;;4933755;29;20492;-66
2023/01/30 02:47:02;;;;;;;1.63;1.50;;;20.80;54.00;;;;;;4923800;29;20511;-66
2023/01/30 02:49:35;;;;;;;1.50;1.40;;;20.80;54.00;;;;;;4933676;29;20491;-66
2023/01/30 02:52:08;;;;;;;1.40;1.30;;;20.80;54.00;;;;;;4923211;29;20453;-66
2023/01/30 02:54:36;;;;;;;1.37;1.27;;;20.80;54.00;;;;;;4931242;29;20457;-66
2023/01/30 02:57:16;;;;;;;1.60;1.50;;;20.80;54.00;;;;;;4926083;29;20614;-67
2023/01/30 02:59:48;;;;;;;1.30;1.20;;;20.80;54.00;;;;;;4929131;29;20492;-66
2023/01/30 03:02:46;;;;;;;1.40;1.30;;;20.80;54.00;;;;;;4931077;29;20523;-66
2023/01/30 03:05:25;;;;;;;1.60;1.50;;;20.80;54.00;;;;;;4927828;29;20473;-66
2023/01/30 03:08:04;;;;;;;1.43;1.33;;;20.80;54.00;;;;;;4923329;29;20476;-66
2023/01/30 03:10:37;;;;;;;1.63;1.53;;;20.80;54.00;;;;;;4926965;29;20470;-66
2023/01/30 03:13:14;;;;;;;1.70;1.60;;;20.80;54.00;;;;;;4928406;29;21106;-66
2023/01/30 03:15:48;;;;;;;1.23;1.13;;;20.80;54.00;;;;;;4930826;29;20844;-66
2023/01/30 03:18:19;;;;;;;1.20;1.10;;;20.80;54.00;;;;;;4924866;29;20457;-66
2023/01/30 03:20:48;;;;;;;1.93;1.83;;;20.80;54.00;;;;;;4927793;29;20554;-66
2023/01/30 03:23:16;;;;;;;2.83;2.63;;;20.80;53.50;;;;;;4927018;29;21007;-66
2023/01/30 03:25:47;;;;;;;2.07;1.97;;;20.80;53.70;;;;;;4922770;29;20469;-66
2023/01/30 03:28:19;;;;;;;2.00;1.57;;;20.80;52.70;;;;;;4928759;29;20464;-67
2023/01/30 03:30:48;;;;;;;1.80;1.70;;;20.70;53.70;;;;;;4920970;29;21198;-66
2023/01/30 03:33:18;;;;;;;1.30;1.23;;;20.70;52.90;;;;;;4926526;29;20468;-66
2023/01/30 03:35:49;;;;;;;2.20;2.03;;;20.70;53.90;;;;;;4928673;29;20557;-66
2023/01/30 03:38:18;;;;;;;1.30;1.23;;;20.70;53.00;;;;;;4930203;29;20958;-66
2023/01/30 03:40:50;;;;;;;1.60;1.50;;;20.70;54.10;;;;;;4929009;29;20547;-66
2023/01/30 03:43:18;;;;;;;1.40;1.30;;;20.70;54.20;;;;;;4941775;29;20465;-67
2023/01/30 03:45:46;;;;;;;1.40;1.30;;;20.70;54.00;;;;;;4927049;29;20867;-66
2023/01/30 03:48:14;;;;;;;2.30;1.40;;;20.70;53.90;;;;;;4934828;29;20477;-66
2023/01/30 03:50:44;;;;;;;1.30;1.20;;;20.70;53.90;;;;;;4931481;29;20482;-66
2023/01/30 03:53:12;;;;;;;1.37;1.30;;;20.80;54.20;;;;;;4943029;29;20469;-66
2023/01/30 03:55:41;;;;;;;1.83;1.73;;;20.80;54.00;;;;;;4927473;29;20469;-66
2023/01/30 03:58:09;;;;;;;2.07;1.97;;;20.80;53.90;;;;;;4930867;29;20559;-66
2023/01/30 04:00:39;;;;;;;1.20;1.20;;;20.80;53.40;;;;;;4945906;29;20479;-66
2023/01/30 04:03:07;;;;;;;1.50;1.40;;;20.70;53.50;;;;;;4915337;29;20515;-66
2023/01/30 04:05:35;;;;;;;2.20;2.00;;;20.70;53.90;;;;;;4928560;29;20566;-66
2023/01/30 04:08:07;;;;;;;1.53;1.43;;;20.70;54.00;;;;;;4926325;29;20965;-66
2023/01/30 04:10:35;;;;;;;1.90;1.77;;;20.70;54.00;;;;;;4931675;29;20500;-66
2023/01/30 04:13:04;;;;;;;1.60;1.30;;;20.70;53.30;;;;;;4930924;29;20465;-66
2023/01/30 04:15:32;;;;;;;1.43;1.33;;;20.70;54.00;;;;;;4931522;29;20492;-66
2023/01/30 04:18:21;;;;;;;2.00;1.90;;;20.70;53.20;;;;;;4939332;29;20556;-66
2023/01/30 04:20:51;;;;;;;1.67;1.50;;;20.60;52.90;;;;;;4932017;29;20529;-66
2023/01/30 04:23:27;;;;;;;1.87;1.77;;;20.60;53.50;;;;;;4930876;29;21036;-66
2023/01/30 04:25:55;;;;;;;2.03;1.93;;;20.60;53.40;;;;;;4928646;29;20452;-66
2023/01/30 04:28:25;;;;;;;2.27;2.07;;;20.50;53.50;;;;;;4931718;29;20817;-66
2023/01/30 04:30:54;;;;;;;2.00;1.80;;;20.50;53.30;;;;;;4922141;29;20812;-66
2023/01/30 04:33:36;;;;;;;2.70;2.50;;;20.40;53.90;;;;;;4928724;29;20808;-66
2023/01/30 04:36:07;;;;;;;2.20;2.00;;;20.40;53.20;;;;;;4931259;29;20468;-66
2023/01/30 04:38:38;;;;;;;1.70;1.60;;;20.40;54.30;;;;;;4929547;29;20561;-66
2023/01/30 04:41:07;;;;;;;1.63;1.53;;;20.40;53.90;;;;;;4926084;29;20493;-66
2023/01/30 04:43:39;;;;;;;1.23;1.13;;;20.40;53.80;;;;;;4931539;29;20476;-66
2023/01/30 04:46:33;;;;;;;1.67;1.57;;;20.40;54.50;;;;;;4932557;29;20960;-66
2023/01/30 04:49:01;;;;;;;2.90;2.70;;;20.50;54.10;;;;;;4934088;29;20476;-66
2023/01/30 04:51:30;;;;;;;1.70;1.60;;;20.50;54.10;;;;;;4930776;29;20555;-66
2023/01/30 04:54:01;;;;;;;1.67;1.57;;;20.50;54.30;;;;;;4931929;29;21035;-66
2023/01/30 04:56:30;;;;;;;1.60;1.50;;;20.50;54.30;;;;;;4930734;29;20468;-66
2023/01/30 04:58:59;;;;;;;2.20;2.00;;;20.50;54.20;;;;;;4933648;29;20786;-66
2023/01/30 05:01:34;;;;;;;1.50;1.40;;;20.60;53.40;;;;;;4932462;29;20945;-66
2023/01/30 05:04:03;;;;;;;1.40;1.30;;;20.60;54.10;;;;;;4931250;29;21006;-66
2023/01/30 05:06:32;;;;;;;1.80;1.70;;;20.60;54.20;;;;;;4933463;29;20460;-66
2023/01/30 05:09:02;;;;;;;2.00;1.90;;;20.60;54.20;;;;;;4926216;29;21008;-66
2023/01/30 05:11:31;;;;;;;2.53;2.33;;;20.60;53.30;;;;;;4933748;29;20466;-66
2023/01/30 05:13:59;;;;;;;2.43;1.83;;;20.60;53.50;;;;;;4931213;29;20469;-67
2023/01/30 05:16:28;;;;;;;2.07;1.93;;;20.50;53.80;;;;;;4929412;29;20497;-66
2023/01/30 05:18:56;;;;;;;2.47;2.30;;;20.50;53.60;;;;;;4930032;29;21231;-66
2023/01/30 05:21:27;;;;;;;1.50;1.40;;;20.50;53.50;;;;;;4932734;29;20452;-66
2023/01/30 05:23:57;;;;;;;2.30;2.10;;;20.50;53.70;;;;;;4926258;29;20474;-66
2023/01/30 05:26:26;;;;;;;1.80;1.70;;;20.40;53.60;;;;;;4932657;29;20442;-66
2023/01/30 05:28:56;;;;;;;2.90;2.47;;;20.40;53.00;;;;;;4928189;29;20478;-70
2023/01/30 05:31:25;;;;;;;2.33;2.23;;;20.40;53.40;;;;;;4929372;29;20495;-65
2023/01/30 05:33:53;;;;;;;2.47;2.30;;;20.40;53.30;;;;;;4926078;29;20466;-66
2023/01/30 05:36:23;;;;;;;2.30;1.97;;;20.40;53.50;;;;;;4926246;29;20598;-66
2023/01/30 05:38:51;;;;;;;1.80;1.70;;;20.40;53.80;;;;;;4921566;29;20537;-66
2023/01/30 05:41:19;;;;;;;2.53;2.33;;;20.40;54.20;;;;;;4922401;29;20485;-67
2023/01/30 05:43:51;;;;;;;2.13;1.70;;;20.30;53.30;;;;;;4923248;29;20559;-67
2023/01/30 05:46:19;;;;;;;2.57;2.33;;;20.40;54.20;;;;;;4939037;29;20498;-66
2023/01/30 05:48:47;;;;;;;2.77;2.57;;;20.40;53.70;;;;;;4931067;29;20465;-65
2023/01/30 05:51:18;;;;;;;1.23;1.17;;;20.40;53.40;;;;;;4930484;29;20547;-66
2023/01/30 05:53:46;;;;;;;1.40;1.30;;;20.40;53.80;;;;;;4930556;29;20517;-66
2023/01/30 05:56:14;;;;;;;1.77;1.67;;;20.40;54.30;;;;;;4926274;29;20460;-66
2023/01/30 05:58:42;;;;;;;1.50;1.40;;;20.50;54.30;;;;;;4931727;29;20540;-66
2023/01/30 06:01:13;;;;;;;2.07;1.97;;;20.50;54.20;;;;;;4929354;29;20621;-66
2023/01/30 06:03:41;;;;;;;1.90;1.80;;;20.50;53.80;;;;;;4933587;29;20485;-66
2023/01/30 06:06:11;;;;;;;1.70;1.60;;;20.50;53.90;;;;;;4932081;29;20456;-65
2023/01/30 06:08:39;;;;;;;2.40;1.90;;;20.50;54.10;;;;;;4933393;29;20520;-66
2023/01/30 06:11:09;;;;;;;1.97;1.87;;;20.50;53.70;;;;;;4933993;29;20849;-65
2023/01/30 06:13:38;;;;;;;1.87;1.77;;;20.40;53.80;;;;;;4931595;29;20493;-65
2023/01/30 06:16:07;;;;;;;2.00;1.60;;;20.40;53.60;;;;;;4927398;29;20596;-66
2023/01/30 06:18:37;;;;;;;1.60;1.50;;;20.40;54.10;;;;;;4930187;29;20460;-66
2023/01/30 06:21:06;;;;;;;1.80;1.70;;;20.30;53.20;;;;;;4928279;29;20461;-65
2023/01/30 06:23:34;;;;;;;2.13;2.03;;;20.30;53.70;;;;;;4928841;29;20466;-66
2023/01/30 06:26:02;;;;;;;3.00;2.70;;;20.30;53.60;;;;;;4926164;29;20473;-66
2023/01/30 06:28:36;;;;;;;1.57;1.47;;;20.20;53.60;;;;;;4931648;29;20568;-66
2023/01/30 06:31:06;;;;;;;1.70;1.60;;;20.20;54.50;;;;;;4928137;29;20469;-66
2023/01/30 06:33:34;;;;;;;1.97;1.80;;;20.10;54.20;;;;;;4924914;29;20469;-66
2023/01/30 06:36:04;;;;;;;1.47;1.37;;;20.10;54.50;;;;;;4924280;29;20486;-66
2023/01/30 06:38:33;;;;;;;1.63;1.57;;;20.20;54.70;;;;;;4923219;29;20460;-65
2023/01/30 06:41:01;;;;;;;1.53;1.43;;;20.20;54.70;;;;;;4923677;29;20844;-66
2023/01/30 06:43:29;;;;;;;1.50;1.40;;;20.20;54.30;;;;;;4921324;29;20497;-66
2023/01/30 06:46:00;;;;;;;2.20;2.00;;;20.30;54.00;;;;;;4920715;29;20461;-66
2023/01/30 06:48:28;;;;;;;2.10;2.00;;;20.30;53.70;;;;;;4926170;29;20926;-66
2023/01/30 06:50:56;;;;;;;1.80;1.67;;;20.30;53.30;;;;;;4923376;29;20878;-66
2023/01/30 06:53:29;;;;;;;2.07;1.80;;;20.40;53.70;;;;;;4933144;29;20548;-66
2023/01/30 06:55:58;;;;;;;1.97;1.87;;;20.40;53.50;;;;;;4928757;29;20533;-66
2023/01/30 06:58:26;;;;;;;3.20;2.90;;;20.40;54.00;;;;;;4930871;29;20477;-66
2023/01/30 07:00:54;;;;;;;1.80;1.70;;;20.40;53.80;;;;;;4932398;29;20523;-66
2023/01/30 07:03:23;;;;;;;1.70;1.60;;;20.50;54.10;;;;;;4927216;29;20492;-66
2023/01/30 07:05:51;;;;;;;1.63;1.53;;;20.50;54.30;;;;;;4931987;29;20484;-66
2023/01/30 07:08:20;;;;;;;1.30;1.20;;;20.60;54.30;;;;;;4926630;29;20465;-66
2023/01/30 07:10:52;;;;;;;1.77;1.67;;;20.60;53.70;;;;;;4933934;29;20449;-66
2023/01/30 07:13:22;;;;;;;1.90;1.80;;;20.60;53.90;;;;;;4914131;29;20458;-66
2023/01/30 07:15:50;;;;;;;1.77;1.67;;;20.60;53.90;;;;;;4919552;29;20478;-66
2023/01/30 07:18:18;;;;;;;1.53;1.43;;;20.60;54.00;;;;;;4926968;29;20533;-66
2023/01/30 07:20:48;;;;;;;2.13;1.93;;;20.50;53.70;;;;;;4928968;29;20454;-66
2023/01/30 07:23:16;;;;;;;1.63;1.53;;;20.50;53.80;;;;;;4932834;29;20535;-66
2023/01/30 07:25:45;;;;;;;2.60;2.40;;;20.50;53.50;;;;;;4933893;29;21013;-66
2023/01/30 07:28:14;;;;;;;1.80;1.70;;;20.50;53.50;;;;;;4934133;29;20453;-66
2023/01/30 07:30:42;;;;;;;2.60;2.40;;;20.40;53.70;;;;;;4930216;29;20511;-66
2023/01/30 07:33:11;;;;;;;1.47;1.40;;;20.40;53.40;;;;;;4933855;29;20440;-66
2023/01/30 07:35:39;;;;;;;1.60;1.50;;;20.30;54.10;;;;;;4929352;29;20504;-65
2023/01/30 07:38:07;;;;;;;2.23;2.10;;;20.30;53.50;;;;;;4931114;29;20455;-66
2023/01/30 07:40:35;;;;;;;2.33;2.23;;;20.30;53.70;;;;;;4927861;29;20480;-66
2023/01/30 07:43:05;;;;;;;2.13;2.00;;;20.30;54.20;;;;;;4929630;29;20456;-66
2023/01/30 07:45:39;;;;;;;2.10;2.00;;;20.30;53.80;;;;;;4934325;29;20469;-66
2023/01/30 07:48:08;;;;;;;1.50;1.40;;;20.30;53.90;;;;;;4929308;29;20931;-66
2023/01/30 07:50:37;;;;;;;2.40;2.27;;;20.40;54.20;;;;;;4931522;29;21008;-66
2023/01/30 07:53:06;;;;;;;1.90;1.80;;;20.40;54.00;;;;;;4927912;29;20460;-66
2023/01/30 07:55:34;;;;;;;2.13;1.93;;;20.40;53.70;;;;;;4933159;29;20571;-66
2023/01/30 07:58:03;;;;;;;2.00;1.90;;;20.50;53.50;;;;;;4923649;29;20461;-66
2023/01/30 08:00:31;;;;;;;2.07;1.60;;;20.60;54.20;;;;;;4929794;29;20473;-66
2023/01/30 08:03:01;;;;;;;1.57;1.50;;;20.60;54.00;;;;;;4930984;29;20485;-66
2023/01/30 08:05:29;;;;;;;2.30;2.10;;;20.60;53.30;;;;;;4925728;29;20463;-65
2023/01/30 08:07:59;;;;;;;1.77;1.67;;;20.60;53.40;;;;;;4919558;29;20474;-66
2023/01/30 08:10:27;;;;;;;3.77;1.60;;;20.70;53.70;;;;;;4923468;29;20474;-66
2023/01/30 08:12:55;;;;;;;2.00;1.80;;;20.60;53.40;;;;;;4919315;29;20962;-66
2023/01/30 08:15:24;;;;;;;1.40;1.30;;;20.60;53.80;;;;;;4921494;29;20573;-66
2023/01/30 08:17:56;;;;;;;1.90;1.80;;;20.60;53.70;;;;;;4934189;29;20486;-65
2023/01/30 08:20:26;;;;;;;1.87;1.77;;;20.60;53.50;;;;;;4930039;29;20548;-66
2023/01/30 08:22:55;;;;;;;1.27;1.17;;;20.60;53.80;;;;;;4931551;29;20452;-66
2023/01/30 08:25:23;;;;;;;1.67;1.57;;;20.60;54.00;;;;;;4927367;29;20556;-66
2023/01/30 08:27:51;;;;;;;1.50;1.40;;;20.50;53.90;;;;;;4922708;29;20458;-66
2023/01/30 08:30:21;;;;;;;1.60;1.50;;;20.50;54.00;;;;;;4926288;29;20528;-66
2023/01/30 08:32:49;;;;;;;1.60;1.50;;;20.50;53.50;;;;;;4937362;29;20480;-66
2023/01/30 08:35:18;;;;;;;2.07;1.97;;;20.50;53.90;;;;;;4927171;29;20536;-65
2023/01/30 08:37:48;;;;;;;1.83;1.70;;;20.40;54.00;;;;;;4937085;29;20451;-66
2023/01/30 08:40:16;;;;;;;2.70;2.50;;;20.40;53.60;;;;;;4930536;29;20461;-66
2023/01/30 08:42:45;;;;;;;2.10;2.00;;;20.40;53.10;;;;;;4936624;29;20872;-66
2023/01/30 08:45:13;;;;;;;1.37;1.27;;;20.40;53.30;;;;;;4932755;29;20507;-65
2023/01/30 08:47:41;;;;;;;1.37;1.27;;;20.30;54.20;;;;;;4934719;29;20505;-66
2023/01/30 08:50:11;;;;;;;1.57;1.47;;;20.30;54.10;;;;;;4932569;29;20556;-66
2023/01/30 08:52:39;;;;;;;1.63;1.53;;;20.40;53.70;;;;;;4929748;29;20876;-66
2023/01/30 08:55:10;;;;;;;2.00;1.90;;;20.40;53.70;;;;;;4931334;29;20484;-65
2023/01/30 08:57:38;;;;;;;1.30;1.20;;;20.40;53.50;;;;;;4930595;29;20524;-66
2023/01/30 09:00:08;;;;;;;2.03;1.93;;;20.40;54.10;;;;;;4930622;29;20464;-65
2023/01/30 09:02:37;;;;;;;2.10;2.00;;;20.40;53.40;;;;;;4934121;29;20488;-64
2023/01/30 09:05:06;;;;;;;2.40;1.90;;;20.50;53.50;;;;;;4930442;29;20543;-65
2023/01/30 09:07:35;;;;;;;2.33;1.90;;;20.50;54.00;;;;;;4928538;29;21034;-64
2023/01/30 09:10:03;;;;;;;2.10;1.90;;;20.60;53.30;;;;;;4933390;29;20563;-64
2023/01/30 09:12:33;;;;;;;2.63;2.43;;;20.60;53.50;;;;;;4932121;29;21018;-64
2023/01/30 09:15:01;;;;;;;3.63;2.97;;;20.60;53.00;;;;;;4923162;29;20493;-64
2023/01/30 09:17:29;;;;;;;3.60;2.90;;;20.60;52.50;;;;;;4931779;29;20477;-64
2023/01/30 09:19:57;;;;;;;4.10;2.40;;;20.60;52.70;;;;;;4927945;29;20461;-64
2023/01/30 09:22:27;;;;;;;3.87;2.67;;;20.70;52.60;;;;;;4928808;29;20474;-64
2023/01/30 09:24:55;;;;;;;3.07;2.87;;;20.70;53.20;;;;;;4925881;29;20539;-65
2023/01/30 09:27:23;;;;;;;2.60;2.40;;;20.60;52.70;;;;;;4925721;29;20466;-64
2023/01/30 09:29:53;;;;;;;3.57;2.40;;;20.60;52.90;;;;;;4929797;29;20988;-64
2023/01/30 09:32:21;;;;;;;2.57;2.37;;;20.60;52.90;;;;;;4926892;29;20945;-65
2023/01/30 09:34:49;;;;;;;2.83;2.30;;;20.60;53.20;;;;;;4930766;29;20465;-64
2023/01/30 09:37:17;;;;;;;2.40;2.20;;;20.60;53.30;;;;;;4933281;29;20847;-64
2023/01/30 09:39:45;;;;;;;2.77;2.57;;;20.70;53.60;;;;;;4929237;29;20545;-64
2023/01/30 09:42:41;;;;;;;3.70;3.40;;;20.70;53.40;;;;;;4929879;29;20504;-64
2023/01/30 09:45:34;;;;;;;3.70;3.40;;;20.70;52.90;;;;;;4930105;29;20555;-64
2023/01/30 09:48:11;;;;;;;2.87;2.60;;;20.70;52.70;;;;;;4929289;29;20486;-64
2023/01/30 09:51:16;;;;;;;2.83;2.60;;;20.70;53.40;;;;;;4926301;29;20550;-64
2023/01/30 09:54:02;;;;;;;2.50;2.30;;;20.70;53.20;;;;;;4927553;29;20467;-64
2023/01/30 09:56:31;;;;;;;3.00;2.80;;;20.70;53.20;;;;;;4926398;29;20568;-64
2023/01/30 09:59:04;;;;;;;2.50;2.30;;;20.80;52.90;;;;;;4933682;29;20464;-64
2023/01/30 10:01:40;;;;;;;3.47;2.70;;;20.80;52.70;;;;;;4927880;29;20491;-64
2023/01/30 10:04:16;;;;;;;3.03;2.80;;;20.80;53.20;;;;;;4926987;29;21528;-64
2023/01/30 10:06:55;;;;;;;4.63;3.43;;;20.80;52.70;;;;;;4927274;29;20521;-66
2023/01/30 10:09:33;;;;;;;3.93;3.13;;;20.80;52.10;;;;;;4926748;29;20495;-64
2023/01/30 10:12:14;;;;;;;3.97;2.47;;;20.90;51.90;;;;;;4921996;29;20520;-64
2023/01/30 10:14:57;;;;;;;2.67;2.47;;;20.90;52.40;;;;;;4924321;29;20513;-64
2023/01/30 10:17:35;;;;;;;4.23;2.53;;;20.90;52.50;;;;;;4925960;29;20495;-64
2023/01/30 10:20:16;;;;;;;2.93;2.73;;;21.00;52.00;;;;;;4925293;29;20498;-65
2023/01/30 10:22:58;;;;;;;3.00;2.80;;;21.00;51.40;;;;;;4926982;29;20471;-64
2023/01/30 10:25:31;;;;;;;2.27;2.17;;;21.10;51.70;;;;;;4923785;29;21030;-64
2023/01/30 10:28:06;;;;;;;2.57;2.47;;;21.20;51.30;;;;;;4921249;29;20490;-64
2023/01/30 10:30:34;;;;;;;2.80;2.60;;;21.20;51.20;;;;;;4925280;29;20561;-64
2023/01/30 10:33:10;;;;;;;2.77;2.57;;;21.30;51.00;;;;;;4930883;29;20596;-64
2023/01/30 10:35:41;;;;;;;2.80;2.60;;;21.30;51.10;;;;;;4925967;29;20563;-63
2023/01/30 10:38:15;;;;;;;2.60;2.40;;;21.20;51.10;;;;;;4929284;29;20501;-64
2023/01/30 10:40:49;;;;;;;2.90;2.60;;;21.20;51.00;;;;;;4928971;29;20540;-64
2023/01/30 10:43:24;;;;;;;3.07;2.73;;;21.20;51.00;;;;;;4926312;29;20511;-64
2023/01/30 10:46:02;;;;;;;2.93;2.63;;;21.10;50.90;;;;;;4928713;29;20458;-64
2023/01/30 10:48:48;;;;;;;2.23;2.07;;;21.10;51.20;;;;;;4931723;29;20461;-66
2023/01/30 10:51:30;;;;;;;2.77;2.57;;;21.00;51.30;;;;;;4923086;29;20466;-64
2023/01/30 10:54:02;;;;;;;2.50;2.30;;;21.00;51.30;;;;;;4929737;29;20858;-64
2023/01/30 10:56:40;;;;;;;2.37;2.27;;;21.00;51.30;;;;;;4931064;29;20942;-64
2023/01/30 10:59:22;;;;;;;2.77;2.57;;;20.90;51.20;;;;;;4930496;29;20473;-64
2023/01/30 11:02:02;;;;;;;2.60;2.40;;;20.90;51.20;;;;;;4922245;29;20555;-65
2023/01/30 11:04:40;;;;;;;2.37;2.10;;;20.90;51.80;;;;;;4928491;29;20446;-64
2023/01/30 11:07:09;;;;;;;3.03;2.83;;;20.90;51.90;;;;;;4921773;29;20917;-65
2023/01/30 11:09:42;;;;;;;3.07;2.77;;;20.90;51.90;;;;;;4926071;29;20538;-64
2023/01/30 11:12:11;;;;;;;3.77;2.60;;;20.90;52.10;;;;;;4924968;29;20469;-64
2023/01/30 11:14:57;;;;;;;2.97;2.53;;;20.90;51.90;;;;;;4927275;29;20496;-68
2023/01/30 11:17:32;;;;;;;2.40;2.30;;;20.90;52.20;;;;;;4930949;29;20456;-64
2023/01/30 11:20:09;;;;;;;2.20;2.00;;;20.90;52.40;;;;;;4929586;29;20587;-64
2023/01/30 11:22:47;;;;;;;3.23;2.50;;;20.90;52.10;;;;;;4927753;29;21000;-64
2023/01/30 11:25:17;;;;;;;2.30;2.10;;;20.90;52.20;;;;;;4927799;29;20943;-64
2023/01/30 11:27:52;;;;;;;2.10;2.00;;;21.00;52.40;;;;;;4928473;29;20457;-64
2023/01/30 11:30:22;;;;;;;2.60;2.40;;;21.00;52.10;;;;;;4929379;29;20469;-64
2023/01/30 11:32:50;;;;;;;2.50;2.30;;;21.00;52.30;;;;;;4920398;29;20578;-64
2023/01/30 11:35:29;;;;;;;2.80;2.60;;;21.10;51.80;;;;;;4919810;29;20506;-64
2023/01/30 11:38:12;;;;;;;2.97;2.77;;;21.10;52.00;;;;;;4924687;29;20959;-64
2023/01/30 11:40:41;;;;;;;2.50;2.30;;;21.10;51.70;;;;;;4923633;29;20839;-64
2023/01/30 11:43:13;;;;;;;2.90;2.70;;;21.10;52.20;;;;;;4929647;29;20461;-64
2023/01/30 11:45:46;;;;;;;4.23;1.93;;;21.10;52.20;;;;;;4930259;29;20544;-64
2023/01/30 11:48:19;;;;;;;4.20;2.93;;;21.10;52.10;;;;;;4925584;29;20462;-64
2023/01/30 11:51:10;;;;;;;3.07;2.63;;;21.10;52.20;;;;;;4921975;29;20457;-64
2023/01/30 11:53:41;;;;;;;2.40;2.27;;;21.10;52.00;;;;;;4924360;29;20484;-64
2023/01/30 11:56:19;;;;;;;3.10;2.83;;;21.10;52.30;;;;;;4934572;29;20463;-64
2023/01/30 11:58:57;;;;;;;2.37;2.27;;;21.10;52.30;;;;;;4931932;29;20520;-64
2023/01/30 12:01:31;;;;;;;3.60;2.40;;;21.10;51.80;;;;;;4928374;29;20459;-65
2023/01/30 12:04:01;;;;;;;2.50;2.37;;;21.10;51.70;;;;;;4928347;29;20555;-64
2023/01/30 12:06:32;;;;;;;4.03;2.90;;;21.10;51.90;;;;;;4932731;29;20468;-64
2023/01/30 12:09:00;;;;;;;4.73;2.70;;;21.10;51.70;;;;;;4932893;29;20500;-65
2023/01/30 12:11:41;;;;;;;2.50;2.30;;;21.00;51.90;;;;;;4931894;29;20485;-64
2023/01/30 12:14:19;;;;;;;2.77;2.50;;;21.00;52.10;;;;;;4934217;29;20461;-64
2023/01/30 12:16:57;;;;;;;3.07;2.77;;;21.00;52.10;;;;;;4928123;29;20588;-64
2023/01/30 12:19:39;;;;;;;2.20;2.10;;;20.90;51.80;;;;;;4927524;29;20865;-65
2023/01/30 12:22:20;;;;;;;2.70;2.30;;;20.90;51.90;;;;;;4931745;29;20532;-64
2023/01/30 12:24:57;;;;;;;2.13;2.03;;;20.90;52.10;;;;;;4930650;29;20456;-64
2023/01/30 12:27:37;;;;;;;2.93;2.63;;;20.80;52.40;;;;;;4932719;29;20487;-64
2023/01/30 12:30:19;;;;;;;4.40;2.13;;;20.80;52.20;;;;;;4930382;29;20817;-65
2023/01/30 12:32:47;;;;;;;2.40;2.30;;;20.80;51.90;;;;;;4932163;29;20516;-64
2023/01/30 12:35:17;;;;;;;4.37;2.90;;;20.80;51.90;;;;;;4927365;29;20528;-65
2023/01/30 12:37:58;;;;;;;2.33;2.23;;;20.80;52.00;;;;;;4931388;29;20468;-65
2023/01/30 12:40:40;;;;;;;2.73;2.57;;;20.90;52.00;;;;;;4925555;29;20563;-64
2023/01/30 12:43:36;;;;;;;2.50;2.30;;;20.90;51.70;;;;;;4931535;29;20485;-64
2023/01/30 12:46:17;;;;;;;2.70;2.50;;;20.90;52.00;;;;;;4904660;29;20473;-66
2023/01/30 12:49:16;;;;;;;4.63;2.43;;;20.80;52.20;;;;;;4930487;29;20456;-65
2023/01/30 12:51:57;;;;;;;5.17;2.43;;;20.90;52.00;;;;;;4928594;29;20576;-65
2023/01/30 12:54:41;;;;;;;3.13;2.83;;;20.80;52.30;;;;;;4928079;29;20995;-65
2023/01/30 12:57:18;;;;;;;2.80;2.60;;;20.90;52.00;;;;;;4930201;29;20544;-65
2023/01/30 12:59:56;;;;;;;2.90;2.70;;;20.80;52.00;;;;;;4932253;29;20476;-65
2023/01/30 13:02:44;;;;;;;3.80;3.30;;;20.80;52.00;;;;;;4931042;29;20490;-65
2023/01/30 13:05:25;;;;;;;4.63;2.33;;;20.80;51.90;;;;;;4931569;29;20461;-65
2023/01/30 13:08:09;;;;;;;2.70;2.47;;;20.80;52.10;;;;;;4928583;29;20863;-64
2023/01/30 13:10:44;;;;;;;2.57;2.37;;;20.70;52.10;;;;;;4931489;29;20461;-65
2023/01/30 13:13:23;;;;;;;4.17;2.30;;;20.70;52.50;;;;;;4934818;29;20477;-65
2023/01/30 13:16:01;;;;;;;2.70;2.50;;;20.70;52.60;;;;;;4929180;29;20501;-64
2023/01/30 13:18:35;;;;;;;2.20;2.10;;;20.60;52.80;;;;;;4930482;29;20524;-65
2023/01/30 13:21:10;;;;;;;2.50;2.30;;;20.60;52.60;;;;;;4932526;29;20464;-64